Aeroporto :
LOGIN :

Iscrizione | Disclaimer

   EN    FR    IT 

 










Sommario :    VFR   VFR Marginale   IFR   IFR Intensivo   IFR Molto Intensivo
Visibilità : 
Base nubi : 
>= 8 km
>= 3000ft
5 / 8 km
1000 / 3000 ft
1500m / 5 km
500 / 1000 ft
800 / 1500m
200 / 500 ft
< 800m
< 200 ft
Simboli :   Temporali  Nebbia  Neve Forte  Precipitazioni Forti  Vento > 20 kt
SIGMETs :   Varie  Temporali  Ghiacco  Turbolenza  Onda orograficha  Ceneri Vulcaniche







- Altitudine del aeroporto : 446 ft
- Codice IATA : VNE
- Carte del aeroporto


LFRV - Vannes-Meucon

ULTIMO METAR :
  • 261900Z AUTO 03009KT CAVOK 09/01 Q1032

METARs OBSOLETI :
  • 261830Z AUTO 02008KT CAVOK 09/01 Q1032
  • 261800Z AUTO 03009KT CAVOK 11/01 Q1032
  • 261730Z AUTO 03010KT CAVOK 12/01 Q1031
  • 261700Z AUTO 03010KT CAVOK 13/01 Q1032
  • 261630Z AUTO 03010KT 360V060 CAVOK 14/02 Q1032

TAF N/A
Nessun NOTAM noto per questo aeroporto.



MetMap, La meteo Aeronautica in un colpo d'occhio ! - Copyright ORBIFLY Dicembre 2007 - Disclaimer

ORBIFLY MET'MAP TEAM :

Programmazione e sviluppo : Alexandra Zaïnal
Concezione e sviluppo : Baudouin d'Aumeries
Co-Programmazione e sviluppo : Marc-Olivier Méhu
Supporto tecnico e logistico : Manuel Goepfert
Aiuto per la traduzione : Arnaldo La Scala

Contatto : metmap@orbifly.com




FONTI E CREDITI :

   NOAA